Terminal Aerodrome Forecast
Issued by NWS

Home | Current Version | Previous Version | Text Only | Print | Product List | Glossary On
Versions: 1 2 3 4 5 6 7 8 9 10 11 12 13
000
FTUS45 KABQ 011127
TAFSAF
TAF
KSAF 011127Z 0112/0212 36007KT P6SM SCT120 BKN200
     FM012030 25011KT P6SM VCSH SCT080 BKN130
     FM020000 27011KT P6SM VCTS SCT090CB BKN140
     FM020200 33009KT P6SM VCSH SCT100 BKN140
     FM020500 35007KT P6SM SCT110 BKN200=

USA.gov is the U.S. government's official web portal to all federal, state and local government web resources and services.